Time;durP1;ratioP1;P1;durP2;ratioP2;P2;SDS_P1;SDS_P2;PMS_P1;PMS_P2;Temp;Humidity;BMP_temperature;BMP_pressure;BME280_temperature;BME280_humidity;BME280_pressure;Samples;Min_cycle;Max_cycle;Signal;HPM_P1;HPM_P2
2022/05/26 00:01:12;;;;;;;2.47;2.28;;;;;;;17.23;95.56;100577.69;5026241;28;20052;-71
2022/05/26 00:03:40;;;;;;;2.88;2.60;;;;;;;17.22;95.26;100567.88;5027398;28;20029;-71
2022/05/26 00:06:08;;;;;;;5.57;2.95;;;;;;;17.14;95.71;100567.88;5026277;28;20033;-71
2022/05/26 00:08:36;;;;;;;3.65;2.90;;;;;;;17.09;96.03;100575.69;5027611;28;20052;-70
2022/05/26 00:11:04;;;;;;;3.50;2.42;;;;;;;17.01;96.43;100568.38;5027508;28;20473;-70
2022/05/26 00:13:29;;;;;;;3.20;2.90;;;;;;;16.99;96.55;100572.28;5059488;28;20092;-70
2022/05/26 00:15:55;;;;;;;4.55;2.80;;;;;;;16.94;96.18;100575.50;5027731;28;20477;-70
2022/05/26 00:18:20;;;;;;;3.03;2.30;;;;;;;16.92;96.37;100568.53;5027932;28;20033;-70
2022/05/26 00:20:46;;;;;;;3.40;2.53;;;;;;;16.98;96.18;100590.41;5027238;28;20392;-70
2022/05/26 00:23:12;;;;;;;5.65;2.97;;;;;;;16.80;96.45;100572.63;5027488;28;20079;-71
2022/05/26 00:25:39;;;;;;;3.90;2.97;;;;;;;16.90;95.88;100593.09;5027378;28;20037;-70
2022/05/26 00:28:04;;;;;;;4.05;2.72;;;;;;;16.86;96.22;100599.03;5027351;28;20381;-70
2022/05/26 00:30:30;;;;;;;3.53;2.90;;;;;;;16.82;96.73;100608.50;5053287;28;20037;-71
2022/05/26 00:32:56;;;;;;;3.67;2.80;;;;;;;16.79;96.49;100598.84;5027119;28;20044;-71
2022/05/26 00:35:22;;;;;;;4.50;3.03;;;;;;;16.76;96.34;100601.03;5027878;28;20034;-69
2022/05/26 00:37:47;;;;;;;4.90;2.95;;;;;;;16.73;96.89;100609.53;5027236;28;20148;-70
2022/05/26 00:40:14;;;;;;;5.47;3.15;;;;;;;16.73;96.78;100612.22;5027284;28;20041;-69
2022/05/26 00:42:40;;;;;;;3.28;2.97;;;;;;;16.64;97.39;100607.81;5019691;28;20029;-70
2022/05/26 00:45:08;;;;;;;3.85;2.72;;;;;;;16.68;97.42;100620.84;5026982;28;20037;-71
2022/05/26 00:47:40;;;;;;;4.72;2.75;;;;;;;16.58;97.51;100611.19;5027048;28;20120;-70
2022/05/26 00:50:17;;;;;;;3.05;2.75;;;;;;;16.64;97.99;100629.47;5027118;28;20780;-70
2022/05/26 00:52:46;;;;;;;4.03;3.40;;;;;;;16.49;98.15;100612.16;5026866;28;20051;-70
2022/05/26 00:55:21;;;;;;;3.13;2.83;;;;;;;16.65;97.84;100642.00;5030226;28;20041;-71
2022/05/26 00:57:51;;;;;;;3.13;2.80;;;;;;;16.62;97.58;100639.63;5041885;28;20042;-69
2022/05/26 01:00:31;;;;;;;3.75;2.53;;;;;;;16.66;96.78;100639.13;5026957;28;20029;-70
2022/05/26 01:03:08;;;;;;;5.30;3.00;;;;;;;16.69;95.89;100651.47;5040550;28;20112;-70
2022/05/26 01:05:41;;;;;;;4.20;2.65;;;;;;;16.66;95.95;100649.94;5039581;28;20040;-69
2022/05/26 01:08:19;;;;;;;4.13;3.03;;;;;;;16.60;95.38;100639.78;5047622;28;20104;-70
2022/05/26 01:10:45;;;;;;;5.47;3.03;;;;;;;16.61;95.42;100654.19;5042301;28;20603;-70
2022/05/26 01:13:14;;;;;;;3.05;2.55;;;;;;;16.45;96.17;100644.16;5030896;28;20029;-70
2022/05/26 01:15:42;;;;;;;3.55;3.08;;;;;;;16.48;96.15;100653.81;5030496;28;20111;-70
2022/05/26 01:18:39;;;;;;;3.63;2.83;;;;;;;16.45;95.98;100646.88;5030618;28;20120;-70
2022/05/26 01:21:31;;;;;;;4.50;3.22;;;;;;;16.35;96.61;100639.84;5030170;28;20052;-70
2022/05/26 01:24:08;;;;;;;3.42;2.80;;;;;;;16.33;96.99;100647.28;5042402;28;20051;-70
2022/05/26 01:26:52;;;;;;;5.68;3.20;;;;;;;16.33;96.71;100663.50;5030487;28;20036;-70
2022/05/26 01:30:05;;;;;;;3.17;2.88;;;;;;;16.29;96.42;100662.16;5030634;28;20593;-70
2022/05/26 01:32:44;;;;;;;3.63;2.93;;;;;;;16.24;96.47;100662.63;4968770;28;20419;-70
2022/05/26 01:35:22;;;;;;;3.30;2.83;;;;;;;16.21;96.81;100665.66;4968969;28;20034;-69
2022/05/26 01:38:24;;;;;;;3.30;2.92;;;;;;;16.19;96.90;100662.28;5007491;28;20052;-70
2022/05/26 01:41:16;;;;;;;3.85;3.30;;;;;;;16.14;97.32;100651.09;5049449;28;20025;-69
2022/05/26 01:43:44;;;;;;;3.40;2.83;;;;;;;16.13;97.03;100652.09;5049057;28;20036;-69
2022/05/26 01:46:29;;;;;;;4.43;2.83;;;;;;;16.14;96.75;100652.94;5043264;28;20094;-69
2022/05/26 01:49:14;;;;;;;3.67;2.95;;;;;;;16.15;96.43;100660.06;5049167;28;20457;-70
2022/05/26 01:51:54;;;;;;;3.42;2.97;;;;;;;16.13;96.51;100656.66;5044705;28;20021;-71
2022/05/26 01:54:40;;;;;;;3.25;2.90;;;;;;;16.10;95.79;100648.88;5048353;28;20507;-69
2022/05/26 01:57:36;;;;;;;5.60;3.30;;;;;;;16.09;95.98;100653.41;5049186;28;20099;-70
2022/05/26 02:00:06;;;;;;;5.15;3.03;;;;;;;15.82;95.68;100621.16;5036944;28;20500;-69
2022/05/26 02:02:36;;;;;;;4.85;3.33;;;;;;;15.93;96.30;100657.91;5036529;28;20022;-69
2022/05/26 02:05:09;;;;;;;5.03;3.60;;;;;;;15.79;96.69;100657.50;5040346;28;20029;-69
2022/05/26 02:07:40;;;;;;;4.05;2.90;;;;;;;15.81;97.12;100655.47;5039474;28;20079;-69
2022/05/26 02:10:15;;;;;;;4.43;2.90;;;;;;;15.82;96.77;100654.47;5049636;28;20031;-70
2022/05/26 02:12:53;;;;;;;4.65;3.45;;;;;;;15.77;96.66;100656.78;5049374;28;20041;-70
2022/05/26 02:15:36;;;;;;;5.90;3.63;;;;;;;15.71;97.09;100670.13;5049530;28;20021;-70
2022/05/26 02:18:17;;;;;;;4.78;3.22;;;;;;;15.67;96.84;100664.16;5046114;28;20078;-69
2022/05/26 02:20:54;;;;;;;7.50;3.53;;;;;;;15.70;96.60;100676.50;5049290;28;20033;-69
2022/05/26 02:23:44;;;;;;;3.78;3.17;;;;;;;15.66;96.17;100665.19;5045697;28;20036;-69
2022/05/26 02:26:10;;;;;;;3.53;3.20;;;;;;;15.62;95.99;100658.41;5037240;28;20737;-70
2022/05/26 02:31:24;;;;;;;7.15;3.97;;;;;;;15.60;95.00;100664.97;5032426;28;20079;-70
2022/05/26 02:33:59;;;;;;;3.80;3.05;;;;;;;15.54;95.81;100671.00;5044344;28;20037;-69
2022/05/26 02:36:28;;;;;;;4.25;2.90;;;;;;;15.52;95.33;100679.28;5029682;28;20033;-70
2022/05/26 02:38:53;;;;;;;3.80;3.40;;;;;;;15.50;95.64;100691.25;5030533;28;20032;-69
2022/05/26 02:41:19;;;;;;;4.38;3.40;;;;;;;15.40;95.67;100679.69;5047685;28;20029;-69
2022/05/26 02:43:45;;;;;;;3.80;3.40;;;;;;;15.34;96.03;100680.25;5038918;28;20772;-69
2022/05/26 02:46:10;;;;;;;4.95;4.07;;;;;;;15.31;96.89;100692.25;5048771;28;20516;-70
2022/05/26 02:48:36;;;;;;;5.03;3.45;;;;;;;15.32;96.62;100693.94;5049007;28;20107;-71
2022/05/26 02:51:13;;;;;;;8.32;3.88;;;;;;;15.26;96.72;100696.44;5045971;28;20421;-71
2022/05/26 02:53:46;;;;;;;3.67;3.20;;;;;;;15.29;95.99;100699.66;5042106;28;20107;-70
2022/05/26 02:56:24;;;;;;;3.47;3.03;;;;;;;15.28;95.74;100695.25;5061461;28;20472;-71
2022/05/26 02:59:17;;;;;;;5.70;3.85;;;;;;;15.18;95.30;100694.50;5047647;28;20041;-70
2022/05/26 03:01:51;;;;;;;4.28;2.95;;;;;;;15.24;95.50;100701.97;5031681;28;20394;-71
2022/05/26 03:04:22;;;;;;;5.53;3.22;;;;;;;15.23;95.68;100707.53;5045180;28;20056;-70
2022/05/26 03:06:52;;;;;;;6.07;3.42;;;;;;;15.17;95.26;100703.63;5046437;28;20116;-71
2022/05/26 03:09:19;;;;;;;4.57;3.25;;;;;;;15.10;95.08;100704.38;5047836;28;20679;-71
2022/05/26 03:11:49;;;;;;;6.20;3.63;;;;;;;15.21;95.16;100723.91;5027754;28;20037;-70
2022/05/26 03:14:16;;;;;;;4.85;2.80;;;;;;;15.14;94.57;100714.72;5030769;28;20503;-70
2022/05/26 03:16:42;;;;;;;4.80;3.30;;;;;;;15.18;94.42;100732.31;5027605;28;20386;-70
2022/05/26 03:19:08;;;;;;;3.20;2.50;;;;;;;15.16;94.38;100738.88;5028271;28;20025;-70
2022/05/26 03:21:35;;;;;;;7.03;3.55;;;;;;;15.03;94.82;100725.75;5033551;28;20029;-71
2022/05/26 03:24:00;;;;;;;4.95;3.50;;;;;;;15.11;94.40;100736.66;5030384;28;21897;-70
2022/05/26 03:26:25;;;;;;;3.33;3.03;;;;;;;15.06;94.50;100741.66;5028567;28;20025;-71
2022/05/26 03:28:51;;;;;;;4.05;3.38;;;;;;;15.02;94.56;100750.19;5027360;28;20032;-71
2022/05/26 03:31:16;;;;;;;4.72;3.47;;;;;;;15.03;95.03;100762.72;5027485;28;20029;-71
2022/05/26 03:41:54;;;;;;;4.50;3.85;;;;;;;15.22;93.67;100765.31;5026809;28;20041;-71
2022/05/26 03:44:21;;;;;;;3.78;3.20;;;;;;;15.24;93.35;100763.28;5027208;28;20053;-70
2022/05/26 03:46:48;;;;;;;4.90;3.60;;;;;;;15.32;92.95;100772.31;5053282;28;20040;-70
2022/05/26 03:49:14;;;;;;;6.60;3.80;;;;;;;15.42;92.76;100785.81;5035430;28;20132;-71
2022/05/26 03:51:39;;;;;;;4.63;3.42;;;;;;;15.49;92.53;100776.06;5032868;28;20167;-70
2022/05/26 03:54:05;;;;;;;4.32;3.63;;;;;;;15.51;91.55;100769.50;5035264;28;20496;-72
2022/05/26 03:56:31;;;;;;;3.90;3.47;;;;;;;15.70;91.44;100784.69;5034032;28;20138;-70
2022/05/26 03:58:56;;;;;;;3.30;3.00;;;;;;;15.85;91.08;100791.25;5037790;28;20024;-72
2022/05/26 04:01:22;;;;;;;4.22;3.10;;;;;;;16.00;88.94;100792.41;5045103;28;20021;-72
2022/05/26 04:03:48;;;;;;;7.13;3.28;;;;;;;16.10;88.01;100787.75;5034895;28;20076;-69
2022/05/26 04:06:17;;;;;;;7.20;3.67;;;;;;;16.19;88.08;100797.63;5025625;28;20026;-72
2022/05/26 04:08:43;;;;;;;5.15;3.47;;;;;;;16.34;87.41;100796.00;5025097;28;20466;-71
2022/05/26 04:11:08;;;;;;;6.22;3.47;;;;;;;16.43;86.34;100805.06;5027555;28;20044;-71
2022/05/26 04:13:34;;;;;;;4.28;3.35;;;;;;;16.57;86.44;100809.91;5035325;28;20063;-71
2022/05/26 04:15:59;;;;;;;5.45;3.53;;;;;;;16.66;84.96;100800.78;5030370;28;20028;-71
2022/05/26 04:18:25;;;;;;;3.63;2.78;;;;;;;16.87;83.40;100815.63;5058572;28;20056;-71
2022/05/26 04:20:51;;;;;;;6.18;3.13;;;;;;;16.78;82.65;100784.09;5046961;28;20442;-71
2022/05/26 04:23:16;;;;;;;3.90;3.10;;;;;;;16.98;82.90;100800.91;5032339;28;20022;-71
2022/05/26 04:25:42;;;;;;;4.80;3.25;;;;;;;17.19;81.85;100814.91;5026781;28;20037;-71
2022/05/26 04:28:07;;;;;;;6.35;3.40;;;;;;;17.41;81.04;100814.28;5042423;28;20028;-70
2022/05/26 04:30:33;;;;;;;6.35;3.40;;;;;;;17.57;80.29;100814.31;5045773;28;20029;-71
2022/05/26 04:32:59;;;;;;;4.57;3.42;;;;;;;17.74;79.18;100814.16;5027749;28;20021;-71
2022/05/26 04:35:24;;;;;;;3.90;3.22;;;;;;;17.92;78.43;100820.28;5047238;28;20017;-70
2022/05/26 04:37:50;;;;;;;3.60;3.30;;;;;;;18.03;77.72;100821.84;5046526;28;20037;-69
2022/05/26 04:40:16;;;;;;;7.72;3.90;;;;;;;18.19;76.26;100831.81;5040618;28;20108;-70
2022/05/26 04:42:41;;;;;;;4.32;3.00;;;;;;;18.28;75.62;100823.50;5034398;28;20036;-69
2022/05/26 04:45:10;;;;;;;4.75;3.03;;;;;;;18.33;73.72;100834.69;5038779;28;20037;-69
2022/05/26 04:47:36;;;;;;;4.35;3.10;;;;;;;18.19;74.91;100810.09;5046722;28;20033;-70
2022/05/26 04:50:03;;;;;;;3.47;2.90;;;;;;;18.24;74.52;100833.00;5046147;28;20035;-70
2022/05/26 04:52:29;;;;;;;5.78;3.80;;;;;;;18.23;74.15;100838.59;5046844;28;20029;-70
2022/05/26 04:54:54;;;;;;;4.55;3.25;;;;;;;18.30;73.74;100854.06;5046699;28;20087;-70
2022/05/26 04:57:22;;;;;;;4.15;3.03;;;;;;;18.26;74.59;100860.00;5037262;28;20881;-71
2022/05/26 04:59:58;;;;;;;3.88;2.85;;;;;;;18.35;74.43;100864.41;5022128;28;20033;-74
2022/05/26 05:02:24;;;;;;;4.50;3.00;;;;;;;18.37;73.58;100868.66;5006769;28;20026;-70
2022/05/26 05:04:51;;;;;;;6.13;2.95;;;;;;;18.35;73.93;100873.41;5011611;28;20033;-70
2022/05/26 05:07:17;;;;;;;3.05;2.40;;;;;;;18.33;74.52;100853.72;5006333;28;20033;-70
2022/05/26 05:09:45;;;;;;;3.58;2.97;;;;;;;18.44;74.34;100864.25;5006412;28;20101;-70
2022/05/26 05:12:14;;;;;;;5.68;3.17;;;;;;;18.56;73.06;100867.44;5007062;28;20112;-70
2022/05/26 05:14:43;;;;;;;6.25;2.90;;;;;;;18.64;72.30;100884.59;5008227;28;20037;-72
2022/05/26 05:17:08;;;;;;;4.43;2.55;;;;;;;18.63;71.91;100877.47;5005182;28;20044;-70
2022/05/26 05:19:34;;;;;;;3.67;2.90;;;;;;;18.61;70.17;100860.50;5006931;28;20108;-69
2022/05/26 05:22:16;;;;;;;2.55;2.28;;;;;;;18.78;70.17;100883.91;5006756;28;20130;-71
2022/05/26 05:24:52;;;;;;;3.72;2.58;;;;;;;18.83;69.87;100878.78;5007979;28;20030;-71
2022/05/26 05:27:26;;;;;;;3.00;2.05;;;;;;;18.94;69.84;100888.44;5006933;28;20033;-70
2022/05/26 05:29:55;;;;;;;3.35;2.17;;;;;;;19.08;69.62;100896.72;5005777;28;20381;-69
2022/05/26 05:32:29;;;;;;;3.35;2.33;;;;;;;19.20;68.97;100894.47;5025073;28;20034;-69
2022/05/26 05:35:00;;;;;;;3.60;2.08;;;;;;;19.34;68.40;100891.88;5019689;28;20430;-70
2022/05/26 05:37:25;;;;;;;6.90;3.10;;;;;;;19.41;67.70;100890.16;5014195;28;20032;-71
2022/05/26 05:39:51;;;;;;;6.85;2.67;;;;;;;19.42;66.89;100880.13;5018292;28;20426;-70
2022/05/26 05:42:17;;;;;;;4.72;2.20;;;;;;;19.43;66.88;100881.81;5007214;28;20031;-71
2022/05/26 05:44:43;;;;;;;3.65;2.20;;;;;;;19.55;66.15;100894.00;5014419;28;20048;-69
2022/05/26 05:47:08;;;;;;;5.30;2.28;;;;;;;19.74;64.81;100901.72;5051896;28;20152;-70
2022/05/26 05:49:35;;;;;;;3.90;1.77;;;;;;;19.73;63.66;100870.06;5007128;28;20105;-69
2022/05/26 05:52:09;;;;;;;2.00;1.73;;;;;;;20.01;63.31;100907.50;5022153;28;20026;-70
2022/05/26 05:54:35;;;;;;;2.65;1.70;;;;;;;20.12;62.41;100917.97;5017988;28;20040;-70
2022/05/26 05:57:00;;;;;;;2.80;1.90;;;;;;;20.25;61.92;100914.69;5025067;28;20045;-70
2022/05/26 05:59:26;;;;;;;2.33;1.75;;;;;;;20.39;61.73;100922.03;5030115;28;20083;-71
2022/05/26 06:01:51;;;;;;;2.83;1.95;;;;;;;20.56;61.19;100928.19;5030044;28;20120;-70
2022/05/26 06:04:16;;;;;;;4.63;1.92;;;;;;;20.74;61.06;100923.25;5010538;28;20037;-70
2022/05/26 06:06:43;;;;;;;3.00;1.75;;;;;;;20.92;60.44;100926.50;5024627;28;20028;-69
2022/05/26 06:09:13;;;;;;;2.70;1.85;;;;;;;21.15;57.93;100924.56;5029474;28;20076;-71
2022/05/26 06:11:40;;;;;;;1.83;1.60;;;;;;;21.17;56.53;100920.59;5022965;28;20029;-70
2022/05/26 06:14:07;;;;;;;3.47;1.73;;;;;;;21.16;56.44;100935.28;5009846;28;20042;-69
2022/05/26 06:16:33;;;;;;;3.03;2.00;;;;;;;21.16;56.10;100937.16;5010214;28;20492;-69
2022/05/26 06:18:59;;;;;;;6.53;1.80;;;;;;;21.16;56.54;100927.09;5029453;28;20393;-70
2022/05/26 06:21:24;;;;;;;3.20;1.42;;;;;;;21.31;55.92;100929.81;5061585;28;20029;-70
2022/05/26 06:23:56;;;;;;;4.38;1.67;;;;;;;21.32;55.71;100934.25;5029531;28;20025;-70
2022/05/26 06:26:26;;;;;;;8.80;2.65;;;;;;;21.31;55.86;100911.56;5029479;28;20037;-70
2022/05/26 06:31:35;;;;;;;1.65;1.50;;;;;;;21.57;55.48;100935.63;5029174;28;20083;-70
2022/05/26 06:39:29;;;;;;;5.10;2.08;;;;;;;22.14;54.39;100948.31;5010105;28;20048;-70
2022/05/26 06:42:06;;;;;;;2.42;1.40;;;;;;;22.27;53.46;100956.66;5007439;28;20030;-69
2022/05/26 06:44:42;;;;;;;5.38;1.98;;;;;;;22.23;54.19;100946.31;5010062;28;20120;-70
2022/05/26 06:47:10;;;;;;;3.50;1.80;;;;;;;22.45;53.47;100961.69;5009429;28;20037;-69
2022/05/26 06:49:38;;;;;;;2.97;1.90;;;;;;;22.42;53.30;100947.53;5009671;28;20026;-69
2022/05/26 06:52:04;;;;;;;1.98;1.58;;;;;;;22.49;53.68;100941.13;5009644;28;20413;-70
2022/05/26 06:54:36;;;;;;;2.08;1.45;;;;;;;22.53;53.10;100947.91;5027025;28;20040;-71
2022/05/26 06:57:03;;;;;;;3.35;1.20;;;;;;;22.49;53.23;100953.91;5044395;28;20103;-70
2022/05/26 06:59:29;;;;;;;2.47;1.40;;;;;;;22.56;52.88;100958.44;5019677;28;20033;-70
2022/05/26 07:01:55;;;;;;;6.50;1.80;;;;;;;22.62;53.30;100954.91;5009129;28;20375;-70
2022/05/26 07:04:21;;;;;;;3.78;1.60;;;;;;;22.69;53.64;100952.25;5008980;28;20053;-70
2022/05/26 07:06:49;;;;;;;1.67;1.40;;;;;;;22.83;53.15;100956.78;5013963;28;20044;-69
2022/05/26 07:09:15;;;;;;;2.70;1.70;;;;;;;22.85;52.85;100955.53;5023501;28;20085;-69
2022/05/26 07:11:40;;;;;;;8.85;2.00;;;;;;;23.05;53.11;100963.91;5020654;28;20029;-70
2022/05/26 07:14:07;;;;;;;1.92;1.40;;;;;;;23.17;52.02;100957.66;5026863;28;20029;-69
2022/05/26 07:16:32;;;;;;;3.65;1.73;;;;;;;23.31;51.74;100962.22;5044103;28;20025;-70
2022/05/26 07:18:58;;;;;;;3.88;1.77;;;;;;;23.41;51.89;100959.13;5028526;28;20044;-70
2022/05/26 07:21:23;;;;;;;2.90;1.38;;;;;;;23.52;52.28;100969.50;5036039;28;20033;-70
2022/05/26 07:23:49;;;;;;;1.98;1.40;;;;;;;23.63;51.79;100967.03;5020629;28;20037;-68
2022/05/26 07:26:15;;;;;;;4.15;1.80;;;;;;;23.68;51.45;100956.31;5027595;28;20031;-70
2022/05/26 07:28:41;;;;;;;7.47;2.03;;;;;;;23.83;51.12;100961.66;5008671;28;20029;-69
2022/05/26 07:31:11;;;;;;;1.30;1.10;;;;;;;23.92;51.03;100969.47;5008848;28;20068;-70
2022/05/26 07:33:37;;;;;;;2.42;1.50;;;;;;;23.91;50.40;100961.47;5008954;28;20088;-70
2022/05/26 07:36:03;;;;;;;1.50;1.20;;;;;;;24.04;50.32;100981.56;5011483;28;20029;-69
2022/05/26 07:41:25;;;;;;;2.78;1.38;;;;;;;23.97;48.72;100975.22;5014316;28;20118;-70
2022/05/26 07:43:57;;;;;;;3.38;1.70;;;;;;;23.95;49.75;100981.94;5019564;28;20025;-69
2022/05/26 07:46:24;;;;;;;5.07;1.60;;;;;;;24.02;50.32;100972.69;5020234;28;20029;-69
2022/05/26 07:48:50;;;;;;;6.50;1.52;;;;;;;24.11;50.02;100985.19;5027974;28;20037;-69
2022/05/26 07:51:19;;;;;;;2.40;1.40;;;;;;;24.19;50.40;100970.44;5027858;28;20025;-71
2022/05/26 07:53:45;;;;;;;1.80;1.50;;;;;;;24.25;50.29;100961.41;5022958;28;20029;-70
2022/05/26 07:56:11;;;;;;;7.07;1.50;;;;;;;24.37;50.20;100973.41;5008180;28;20123;-71
2022/05/26 07:58:37;;;;;;;1.85;1.33;;;;;;;24.45;49.68;100965.84;5047045;28;20123;-69
2022/05/26 08:01:03;;;;;;;6.85;1.17;;;;;;;24.47;49.65;100949.19;5047949;28;20536;-70
2022/05/26 08:03:29;;;;;;;3.40;1.60;;;;;;;24.60;48.73;100956.59;5037692;28;20037;-69
2022/05/26 08:05:55;;;;;;;2.15;1.30;;;;;;;24.70;48.86;100962.53;5043275;28;20436;-70
2022/05/26 08:08:21;;;;;;;5.75;1.40;;;;;;;24.74;49.05;100958.31;5035294;28;20029;-70
2022/05/26 08:10:46;;;;;;;3.10;1.38;;;;;;;24.85;48.63;100963.19;5027592;28;20100;-70
2022/05/26 08:13:12;;;;;;;3.88;1.20;;;;;;;24.83;48.24;100946.94;5027811;28;20116;-71
2022/05/26 08:15:37;;;;;;;4.40;1.80;;;;;;;24.95;48.48;100958.13;5028852;28;20041;-71
2022/05/26 08:18:03;;;;;;;6.30;1.95;;;;;;;24.96;47.85;100960.66;5047592;28;20044;-70
2022/05/26 08:20:29;;;;;;;3.30;1.35;;;;;;;25.06;48.09;100952.81;5042131;28;20042;-71
2022/05/26 08:22:54;;;;;;;2.10;1.15;;;;;;;25.21;48.56;100956.16;5044884;28;20737;-70
2022/05/26 08:25:20;;;;;;;1.60;1.02;;;;;;;25.38;48.54;100953.84;5047325;28;20029;-70
2022/05/26 08:27:45;;;;;;;4.10;1.50;;;;;;;25.48;47.21;100952.34;5047049;28;20127;-70
2022/05/26 08:30:12;;;;;;;1.95;1.20;;;;;;;25.58;46.54;100954.63;5047528;28;20040;-71
2022/05/26 08:32:37;;;;;;;2.38;1.27;;;;;;;25.71;46.38;100957.31;5047577;28;20060;-70
2022/05/26 08:35:06;;;;;;;2.55;1.30;;;;;;;25.78;44.63;100955.38;5047288;28;20048;-71
2022/05/26 08:37:32;;;;;;;4.20;1.63;;;;;;;25.68;44.68;100960.50;5047070;28;20086;-71
2022/05/26 08:39:57;;;;;;;1.98;1.20;;;;;;;25.69;45.18;100948.44;5046967;28;20473;-69
2022/05/26 08:42:27;;;;;;;6.53;1.55;;;;;;;25.73;44.55;100947.78;5029123;28;20095;-70
2022/05/26 08:44:56;;;;;;;4.13;1.17;;;;;;;25.84;44.52;100957.28;5032216;28;20485;-70
2022/05/26 08:47:32;;;;;;;1.70;1.38;;;;;;;25.75;43.75;100950.31;5062630;28;20166;-70
2022/05/26 08:50:13;;;;;;;6.05;1.63;;;;;;;25.77;44.17;100950.97;5046783;28;20036;-71
2022/05/26 08:53:00;;;;;;;6.35;1.88;;;;;;;25.74;44.50;100952.25;5047524;28;20357;-70
2022/05/26 08:55:55;;;;;;;5.93;1.42;;;;;;;25.85;44.95;100961.69;5047053;28;20459;-70
2022/05/26 08:58:44;;;;;;;2.00;1.38;;;;;;;25.85;44.27;100953.44;5042406;28;20094;-71
2022/05/26 09:01:12;;;;;;;2.95;1.05;;;;;;;25.91;43.15;100958.09;5034121;28;20082;-72
2022/05/26 09:03:38;;;;;;;1.45;1.08;;;;;;;25.97;42.63;100962.75;5027765;28;20030;-71
2022/05/26 09:06:08;;;;;;;0.93;0.80;;;;;;;26.02;42.90;100958.25;5027357;28;20575;-71
2022/05/26 09:14:19;;;;;;;1.30;0.70;;;;;;;26.11;41.61;100950.59;5034514;28;20137;-71
2022/05/26 09:16:44;;;;;;;4.07;1.08;;;;;;;26.05;42.34;100948.75;5035066;28;20763;-71
2022/05/26 09:19:20;;;;;;;2.03;1.02;;;;;;;26.13;40.69;100956.75;5033656;28;20061;-70
2022/05/26 09:21:48;;;;;;;2.17;1.25;;;;;;;26.10;40.43;100954.41;5026563;28;20104;-72
2022/05/26 09:24:30;;;;;;;1.23;1.13;;;;;;;26.19;39.15;100969.63;5025719;28;20029;-70
2022/05/26 09:27:06;;;;;;;3.38;1.35;;;;;;;26.03;39.48;100970.13;5042961;28;20503;-70
2022/05/26 09:29:36;;;;;;;3.35;0.80;;;;;;;25.98;39.52;100961.66;5040407;28;20029;-70
2022/05/26 09:32:04;;;;;;;2.85;1.00;;;;;;;25.87;39.24;100952.19;5037777;28;20037;-71
2022/05/26 09:34:33;;;;;;;0.90;0.90;;;;;;;25.98;39.49;100965.28;5029963;28;20032;-71
2022/05/26 09:37:00;;;;;;;2.30;1.10;;;;;;;26.03;40.08;100970.97;5048481;28;20033;-70
2022/05/26 09:39:37;;;;;;;1.33;0.80;;;;;;;26.15;40.83;100962.88;5050521;28;20381;-70
2022/05/26 09:42:15;;;;;;;1.42;1.00;;;;;;;26.17;40.29;100978.09;5044978;28;20025;-70
2022/05/26 09:44:44;;;;;;;1.52;0.60;;;;;;;26.16;40.05;100973.66;5041760;28;20121;-70
2022/05/26 09:47:32;;;;;;;2.92;0.80;;;;;;;26.18;39.82;100971.50;5029818;28;20047;-71
2022/05/26 09:50:00;;;;;;;0.80;0.60;;;;;;;26.21;39.50;100971.06;5027382;28;20029;-69
2022/05/26 09:52:37;;;;;;;3.33;0.93;;;;;;;26.23;39.28;100968.09;5029516;28;20053;-70
2022/05/26 09:55:26;;;;;;;3.35;0.82;;;;;;;26.19;39.99;100975.13;5029708;28;20060;-70
2022/05/26 09:58:30;;;;;;;3.53;0.90;;;;;;;26.23;40.65;100974.47;5047245;28;20489;-71
2022/05/26 10:01:01;;;;;;;3.22;1.00;;;;;;;26.25;40.05;100963.25;5039454;28;20060;-71
2022/05/26 10:03:37;;;;;;;2.80;1.10;;;;;;;26.29;38.60;100959.81;5038816;28;20463;-70
2022/05/26 10:06:22;;;;;;;2.08;0.85;;;;;;;26.33;38.39;100961.06;5049137;28;20079;-71
2022/05/26 10:09:12;;;;;;;0.95;0.63;;;;;;;26.39;38.29;100960.19;5047753;28;20107;-71
2022/05/26 10:12:01;;;;;;;1.23;0.63;;;;;;;26.46;37.83;100965.63;5037221;28;20036;-71
2022/05/26 10:14:38;;;;;;;2.50;1.00;;;;;;;26.44;38.15;100960.34;5044503;28;20112;-70
2022/05/26 10:17:13;;;;;;;1.85;0.80;;;;;;;26.52;37.78;100962.00;5047010;28;20520;-70
2022/05/26 10:20:03;;;;;;;0.82;0.65;;;;;;;26.52;37.74;100973.00;5049665;28;20579;-70
2022/05/26 10:22:32;;;;;;;1.63;0.80;;;;;;;26.56;36.60;100960.47;5049665;28;20044;-71
2022/05/26 10:25:35;;;;;;;1.67;0.90;;;;;;;26.50;36.67;100962.22;5044297;28;21013;-71
2022/05/26 10:28:12;;;;;;;2.17;0.70;;;;;;;26.58;36.98;100960.25;5029510;28;20031;-71
2022/05/26 10:30:47;;;;;;;1.10;1.00;;;;;;;26.56;36.62;100967.91;5029715;28;20500;-71
2022/05/26 10:33:45;;;;;;;0.77;0.55;;;;;;;26.51;37.20;100965.81;5029874;28;20501;-70
2022/05/26 10:36:24;;;;;;;3.05;0.68;;;;;;;26.48;36.34;100958.00;5034903;28;20041;-70
2022/05/26 10:39:17;;;;;;;2.78;0.88;;;;;;;26.34;36.70;100970.13;5029538;28;20120;-70
2022/05/26 10:41:55;;;;;;;1.70;0.90;;;;;;;26.27;36.81;100967.44;5049678;28;20033;-70
2022/05/26 10:44:41;;;;;;;0.80;0.60;;;;;;;26.28;37.06;100962.78;5031671;28;20033;-71
2022/05/26 10:47:29;;;;;;;2.92;0.88;;;;;;;26.31;36.82;100963.19;5036668;28;20866;-71
2022/05/26 10:50:12;;;;;;;2.42;0.77;;;;;;;26.27;36.81;100961.94;5040471;28;20032;-70
2022/05/26 10:52:43;;;;;;;1.33;0.70;;;;;;;26.20;37.34;100966.66;5049225;28;20037;-71
2022/05/26 10:55:17;;;;;;;4.22;0.90;;;;;;;26.22;36.78;100969.19;5046516;28;20029;-71
2022/05/26 10:57:56;;;;;;;3.95;0.70;;;;;;;26.18;37.50;100956.94;5040141;28;20081;-71
2022/05/26 11:00:25;;;;;;;2.92;0.65;;;;;;;26.17;37.67;100968.97;5029170;28;20037;-71
2022/05/26 11:03:02;;;;;;;4.13;0.60;;;;;;;26.15;37.94;100966.44;5042702;28;20028;-71
2022/05/26 11:05:27;;;;;;;0.88;0.68;;;;;;;26.20;37.51;100957.53;5047899;28;20032;-71
2022/05/26 11:07:55;;;;;;;2.22;0.82;;;;;;;26.22;37.20;100960.91;5046658;28;20489;-71
2022/05/26 11:10:24;;;;;;;7.90;0.63;;;;;;;26.14;36.91;100961.16;5046680;28;20028;-71
2022/05/26 11:12:55;;;;;;;1.30;0.80;;;;;;;26.14;37.03;100948.28;5025678;28;20129;-71
2022/05/26 11:18:39;;;;;;;2.60;0.63;;;;;;;26.13;37.87;100954.84;5028974;28;20099;-70
2022/05/26 11:21:05;;;;;;;3.78;0.82;;;;;;;26.15;36.45;100938.13;5037390;28;20040;-70
2022/05/26 11:23:36;;;;;;;0.70;0.60;;;;;;;26.22;36.46;100933.41;5048787;28;20024;-70
2022/05/26 11:26:14;;;;;;;2.20;0.70;;;;;;;26.22;36.44;100939.75;5039198;28;20036;-71
2022/05/26 11:29:11;;;;;;;1.63;0.80;;;;;;;26.18;36.38;100932.19;5036411;28;20162;-72
2022/05/26 11:37:36;;;;;;;2.90;0.80;;;;;;;26.25;35.97;100925.53;5028919;28;20071;-72
2022/05/26 11:40:11;;;;;;;3.45;0.70;;;;;;;26.29;36.26;100946.06;5027049;28;20033;-71
2022/05/26 11:42:39;;;;;;;2.45;0.80;;;;;;;26.30;35.76;100950.50;5028780;28;20104;-70
2022/05/26 11:45:07;;;;;;;1.05;0.50;;;;;;;26.34;33.86;100937.13;5040902;28;20036;-71
2022/05/26 11:47:51;;;;;;;1.92;0.55;;;;;;;26.26;34.21;100942.91;5044315;28;20028;-72
2022/05/26 11:50:24;;;;;;;3.92;0.65;;;;;;;26.22;34.50;100936.16;5035290;28;20159;-70
2022/05/26 11:52:52;;;;;;;1.80;0.70;;;;;;;26.23;34.78;100927.69;5034291;28;20043;-71
2022/05/26 11:55:29;;;;;;;2.25;0.80;;;;;;;26.24;35.03;100937.63;5034311;28;20041;-71
2022/05/26 11:57:55;;;;;;;1.17;0.70;;;;;;;26.31;34.70;100923.84;5053873;28;20057;-71
2022/05/26 12:00:37;;;;;;;1.70;0.57;;;;;;;26.27;34.73;100914.31;5043998;28;20036;-71
2022/05/26 12:03:22;;;;;;;4.32;0.60;;;;;;;26.33;34.72;100916.19;5028387;28;20022;-71
2022/05/26 12:06:10;;;;;;;0.65;0.50;;;;;;;26.36;35.04;100913.84;5029080;28;20025;-71
2022/05/26 12:09:01;;;;;;;1.98;0.70;;;;;;;26.35;35.49;100914.06;5028620;28;20071;-71
2022/05/26 12:12:02;;;;;;;1.20;0.90;;;;;;;26.37;36.21;100921.03;5028333;28;20025;-71
2022/05/26 12:14:46;;;;;;;0.75;0.57;;;;;;;26.38;35.81;100906.19;5028692;28;20042;-71
2022/05/26 12:17:32;;;;;;;1.53;0.80;;;;;;;26.37;36.22;100903.66;5027905;28;20136;-70
2022/05/26 12:20:11;;;;;;;2.15;0.60;;;;;;;26.38;36.40;100919.13;5027673;28;20104;-71
2022/05/26 12:22:49;;;;;;;2.03;0.70;;;;;;;26.31;35.50;100907.34;5027963;28;20162;-71